Time;durP1;ratioP1;P1;durP2;ratioP2;P2;SDS_P1;SDS_P2;PMS_P1;PMS_P2;Temp;Humidity;BMP_temperature;BMP_pressure;BME280_temperature;BME280_humidity;BME280_pressure;Samples;Min_cycle;Max_cycle;Signal;HPM_P1;HPM_P2
2022/03/26 00:02:06;;;;;;;32.70;19.03;;;10.40;42.90;;;;;;7365995;19;20388;-83
2022/03/26 00:04:35;;;;;;;30.30;19.13;;;10.40;43.40;;;;;;7376540;19;20387;-80
2022/03/26 00:07:07;;;;;;;30.90;20.10;;;10.40;43.20;;;;;;7365359;19;20376;-80
2022/03/26 00:09:37;;;;;;;30.30;19.13;;;10.50;43.10;;;;;;7382598;19;20392;-80
2022/03/26 00:12:11;;;;;;;33.53;19.93;;;10.40;42.90;;;;;;7371987;19;20439;-83
2022/03/26 00:14:45;;;;;;;37.10;22.03;;;10.40;42.90;;;;;;7374950;19;20471;-83
2022/03/26 00:17:14;;;;;;;40.87;20.03;;;10.40;43.20;;;;;;7369853;19;21470;-83
2022/03/26 00:19:49;;;;;;;39.87;21.03;;;10.40;43.40;;;;;;7374949;19;20474;-82
2022/03/26 00:22:18;;;;;;;31.05;19.23;;;10.30;43.50;;;;;;7369519;19;20960;-81
2022/03/26 00:24:50;;;;;;;34.33;20.23;;;10.20;43.40;;;;;;7364978;19;20143;-80
2022/03/26 00:27:23;;;;;;;30.70;20.20;;;10.20;43.60;;;;;;7363977;19;20398;-80
2022/03/26 00:29:55;;;;;;;39.37;20.47;;;10.20;43.80;;;;;;7377799;19;20400;-81
2022/03/26 00:32:24;;;;;;;35.03;20.60;;;10.10;43.90;;;;;;7365740;19;20404;-81
2022/03/26 00:34:54;;;;;;;36.77;19.70;;;10.00;44.20;;;;;;7372306;19;20854;-82
2022/03/26 00:37:26;;;;;;;35.67;20.27;;;10.00;44.30;;;;;;7368799;19;20501;-81
2022/03/26 00:39:56;;;;;;;36.60;20.40;;;9.90;45.20;;;;;;7365847;19;20143;-81
2022/03/26 00:42:28;;;;;;;34.28;20.25;;;9.90;45.60;;;;;;7358794;19;21768;-81
2022/03/26 00:44:58;;;;;;;31.00;18.58;;;9.80;45.80;;;;;;7367817;19;20152;-82
2022/03/26 00:47:29;;;;;;;39.55;21.15;;;9.70;45.90;;;;;;7374428;19;21025;-82
2022/03/26 00:50:02;;;;;;;35.50;21.47;;;9.60;46.00;;;;;;7369060;19;20135;-82
2022/03/26 00:52:34;;;;;;;38.03;20.73;;;9.60;46.40;;;;;;7374016;19;21017;-84
2022/03/26 00:55:03;;;;;;;39.15;20.65;;;9.60;46.40;;;;;;7373274;19;20227;-83
2022/03/26 00:57:36;;;;;;;36.90;21.60;;;9.50;46.70;;;;;;7371212;19;20711;-83
2022/03/26 01:00:08;;;;;;;40.92;21.00;;;9.40;47.30;;;;;;7375609;19;20139;-81
2022/03/26 01:02:37;;;;;;;37.10;19.83;;;9.30;46.70;;;;;;7376122;19;20139;-84
2022/03/26 01:05:10;;;;;;;35.70;19.63;;;9.30;46.70;;;;;;7380426;19;20139;-80
2022/03/26 01:07:40;;;;;;;37.05;19.63;;;9.40;46.30;;;;;;7383752;19;20154;-80
2022/03/26 01:10:11;;;;;;;38.33;20.63;;;9.50;46.20;;;;;;7369596;19;20786;-81
2022/03/26 01:12:43;;;;;;;43.55;20.77;;;9.50;46.20;;;;;;7380008;19;20948;-83
2022/03/26 01:15:13;;;;;;;36.97;19.33;;;9.40;46.50;;;;;;7376598;19;20182;-84
2022/03/26 01:17:42;;;;;;;36.95;20.85;;;9.40;46.70;;;;;;7381297;19;20137;-83
2022/03/26 01:20:13;;;;;;;39.00;20.83;;;9.40;46.80;;;;;;7381837;19;20612;-83
2022/03/26 01:22:42;;;;;;;36.35;19.70;;;9.40;47.00;;;;;;7374252;19;20670;-83
2022/03/26 01:25:12;;;;;;;39.40;22.02;;;9.40;47.00;;;;;;7376905;19;20750;-82
2022/03/26 01:27:46;;;;;;;34.28;19.33;;;9.20;47.20;;;;;;7385730;19;20174;-83
2022/03/26 01:30:16;;;;;;;39.22;21.00;;;9.20;47.50;;;;;;7384926;19;20159;-83
2022/03/26 01:32:46;;;;;;;40.25;20.35;;;9.10;47.30;;;;;;7392884;19;20136;-83
2022/03/26 01:35:16;;;;;;;36.80;19.60;;;9.10;47.70;;;;;;7397695;19;20144;-85
2022/03/26 01:37:45;;;;;;;34.10;19.02;;;9.00;47.80;;;;;;7392180;19;20132;-82
2022/03/26 01:40:15;;;;;;;38.38;20.95;;;8.90;48.00;;;;;;7386810;19;20191;-82
2022/03/26 01:42:48;;;;;;;36.33;20.00;;;8.90;47.80;;;;;;7378930;19;20948;-83
2022/03/26 01:45:17;;;;;;;40.13;20.92;;;9.00;47.50;;;;;;7377402;19;20135;-80
2022/03/26 01:47:47;;;;;;;31.70;18.60;;;9.00;47.50;;;;;;7373331;19;20267;-80
2022/03/26 01:50:16;;;;;;;38.38;21.65;;;8.80;48.00;;;;;;7367626;19;20147;-81
2022/03/26 01:52:46;;;;;;;33.78;22.02;;;8.70;48.30;;;;;;7373198;19;20139;-80
2022/03/26 01:55:15;;;;;;;37.92;20.63;;;8.60;48.70;;;;;;7365785;19;20159;-80
2022/03/26 01:57:48;;;;;;;34.53;20.00;;;8.50;48.80;;;;;;7362805;19;20155;-80
2022/03/26 02:00:18;;;;;;;37.65;20.05;;;8.50;48.90;;;;;;7367495;19;20132;-81
2022/03/26 02:02:48;;;;;;;36.95;20.20;;;8.50;48.90;;;;;;7371502;19;21042;-81
2022/03/26 02:05:19;;;;;;;38.78;20.75;;;8.60;48.80;;;;;;7360223;19;20143;-81
2022/03/26 02:07:51;;;;;;;37.60;21.42;;;8.60;48.70;;;;;;7364859;19;20631;-82
2022/03/26 02:10:22;;;;;;;43.60;21.38;;;8.60;49.10;;;;;;7368628;19;20128;-83
2022/03/26 02:12:54;;;;;;;33.92;19.52;;;8.50;49.20;;;;;;7385552;19;20151;-83
2022/03/26 02:15:23;;;;;;;38.42;20.30;;;8.40;49.50;;;;;;7381566;19;20160;-82
2022/03/26 02:17:53;;;;;;;41.10;20.83;;;8.40;49.50;;;;;;7378711;19;20164;-81
2022/03/26 02:20:25;;;;;;;36.17;22.08;;;8.40;49.40;;;;;;7373921;19;20139;-80
2022/03/26 02:22:56;;;;;;;39.47;20.95;;;8.40;49.50;;;;;;7401639;19;20124;-82
2022/03/26 02:25:28;;;;;;;38.65;20.60;;;8.40;49.40;;;;;;7400899;19;20278;-81
2022/03/26 02:27:58;;;;;;;33.38;18.83;;;8.40;49.50;;;;;;7403919;19;20161;-82
2022/03/26 02:30:27;;;;;;;40.40;19.88;;;8.30;49.70;;;;;;7390426;19;20130;-82
2022/03/26 02:33:02;;;;;;;42.72;21.77;;;8.20;50.00;;;;;;7393188;19;20131;-82
2022/03/26 02:35:36;;;;;;;36.90;21.40;;;8.10;49.90;;;;;;7392853;19;20157;-81
2022/03/26 02:38:05;;;;;;;42.50;22.50;;;8.00;50.80;;;;;;7391890;19;20140;-83
2022/03/26 02:40:35;;;;;;;38.35;20.60;;;8.10;50.20;;;;;;7410767;19;20128;-83
2022/03/26 02:43:08;;;;;;;36.70;20.13;;;8.10;50.40;;;;;;7418518;19;20746;-83
2022/03/26 02:45:38;;;;;;;39.15;20.50;;;8.20;50.00;;;;;;7419483;19;20143;-83
2022/03/26 02:48:09;;;;;;;36.15;20.45;;;8.30;50.20;;;;;;7419504;19;20140;-83
2022/03/26 02:50:44;;;;;;;40.70;20.75;;;8.10;50.10;;;;;;7418805;19;20139;-84
2022/03/26 02:53:14;;;;;;;39.38;20.83;;;8.10;50.40;;;;;;7421484;19;20153;-83
2022/03/26 02:55:44;;;;;;;34.47;19.77;;;8.00;50.50;;;;;;7413403;19;20162;-84
2022/03/26 02:58:14;;;;;;;33.80;20.05;;;8.00;50.50;;;;;;7388672;19;21090;-85
2022/03/26 03:00:43;;;;;;;35.25;19.40;;;8.00;50.50;;;;;;7390575;19;20619;-84
2022/03/26 03:03:13;;;;;;;37.97;21.25;;;7.90;50.70;;;;;;7392573;19;20144;-87
2022/03/26 03:05:48;;;;;;;41.65;20.75;;;7.90;50.80;;;;;;7391510;19;20813;-84
2022/03/26 03:08:18;;;;;;;35.28;19.40;;;8.00;50.80;;;;;;7391003;19;20137;-85
2022/03/26 03:10:51;;;;;;;34.50;20.15;;;7.90;50.90;;;;;;7384730;19;20222;-83
2022/03/26 03:13:22;;;;;;;35.60;18.77;;;7.80;50.90;;;;;;7384304;19;20170;-83
2022/03/26 03:15:52;;;;;;;36.00;20.63;;;7.70;50.90;;;;;;7381508;19;20164;-81
2022/03/26 03:18:22;;;;;;;39.92;21.10;;;7.60;51.40;;;;;;7379114;19;20139;-81
2022/03/26 03:20:54;;;;;;;34.67;19.40;;;7.60;51.20;;;;;;7371296;19;20147;-80
2022/03/26 03:23:29;;;;;;;36.47;18.63;;;7.60;51.50;;;;;;7373942;19;20655;-80
2022/03/26 03:25:59;;;;;;;32.00;19.38;;;7.70;51.40;;;;;;7366187;19;20152;-81
2022/03/26 03:28:29;;;;;;;32.50;19.55;;;7.70;51.10;;;;;;7369596;19;20235;-81
2022/03/26 03:30:59;;;;;;;32.63;18.95;;;7.70;51.40;;;;;;7375985;19;20147;-82
2022/03/26 03:33:28;;;;;;;37.38;20.63;;;7.70;51.10;;;;;;7374189;19;20146;-82
2022/03/26 03:36:03;;;;;;;33.15;19.58;;;7.80;51.50;;;;;;7375040;19;20211;-83
2022/03/26 03:38:36;;;;;;;36.10;19.58;;;7.70;51.50;;;;;;7376945;19;20135;-84
2022/03/26 03:41:05;;;;;;;35.20;19.48;;;7.80;51.50;;;;;;7381885;19;20212;-84
2022/03/26 03:43:35;;;;;;;34.38;18.88;;;7.70;51.50;;;;;;7382301;19;20231;-84
2022/03/26 03:46:04;;;;;;;30.65;17.80;;;7.60;51.60;;;;;;7374060;19;20135;-82
2022/03/26 03:48:33;;;;;;;36.13;19.17;;;7.60;51.80;;;;;;7385757;19;20250;-84
2022/03/26 03:51:08;;;;;;;32.75;19.63;;;7.60;51.80;;;;;;7388811;19;20144;-83
2022/03/26 03:53:40;;;;;;;32.40;18.33;;;7.60;52.00;;;;;;7388957;19;20146;-83
2022/03/26 03:56:09;;;;;;;35.83;19.10;;;7.50;51.90;;;;;;7381923;19;20186;-81
2022/03/26 03:58:41;;;;;;;37.65;21.33;;;7.60;51.70;;;;;;7364816;19;20394;-79
2022/03/26 04:01:12;;;;;;;36.78;19.80;;;7.60;51.70;;;;;;7374322;19;20159;-81
2022/03/26 04:03:44;;;;;;;35.50;19.85;;;7.60;51.70;;;;;;7382195;19;20148;-83
2022/03/26 04:06:16;;;;;;;34.90;19.65;;;7.50;51.50;;;;;;7385103;19;20128;-79
2022/03/26 04:08:48;;;;;;;30.73;18.63;;;7.50;51.60;;;;;;7378451;19;20139;-81
2022/03/26 04:11:17;;;;;;;33.90;20.00;;;7.40;51.90;;;;;;7381356;19;20135;-81
2022/03/26 04:13:50;;;;;;;33.53;17.45;;;7.40;52.00;;;;;;7380738;19;20252;-83
2022/03/26 04:16:22;;;;;;;32.75;18.15;;;7.40;52.10;;;;;;7377991;19;20143;-81
2022/03/26 04:18:52;;;;;;;33.38;18.20;;;7.40;52.00;;;;;;7388557;19;20140;-86
2022/03/26 04:21:24;;;;;;;40.20;20.17;;;7.40;52.20;;;;;;7386527;19;20139;-81
2022/03/26 04:23:53;;;;;;;41.92;21.10;;;7.30;52.10;;;;;;7387259;19;20136;-87
2022/03/26 04:26:23;;;;;;;36.03;20.23;;;7.30;52.30;;;;;;7380924;19;20484;-81
2022/03/26 04:28:54;;;;;;;40.75;19.08;;;7.40;52.40;;;;;;7387387;19;20155;-84
2022/03/26 04:31:24;;;;;;;34.00;17.98;;;7.20;52.70;;;;;;7382112;19;20139;-85
2022/03/26 04:33:54;;;;;;;42.90;20.17;;;7.10;53.00;;;;;;7383106;19;20128;-85
2022/03/26 04:36:29;;;;;;;32.40;17.48;;;7.10;52.90;;;;;;7392764;19;20139;-86
2022/03/26 04:38:58;;;;;;;37.92;20.02;;;7.10;52.80;;;;;;7390520;19;20146;-89
2022/03/26 04:41:28;;;;;;;34.55;19.13;;;7.10;52.60;;;;;;7390414;19;20178;-85
2022/03/26 04:43:58;;;;;;;39.53;19.88;;;7.00;52.90;;;;;;7372782;19;22149;-80
2022/03/26 04:46:28;;;;;;;26.63;17.60;;;7.00;53.00;;;;;;7378418;19;20132;-84
2022/03/26 04:48:59;;;;;;;27.60;17.05;;;7.00;53.00;;;;;;7383232;19;20615;-85
2022/03/26 04:51:32;;;;;;;36.13;20.60;;;7.00;53.10;;;;;;7385192;19;20249;-85
2022/03/26 04:54:03;;;;;;;35.70;18.42;;;7.00;53.40;;;;;;7387566;19;20146;-85
2022/03/26 04:56:36;;;;;;;30.30;17.27;;;6.90;53.50;;;;;;7387664;19;20430;-84
2022/03/26 04:59:08;;;;;;;33.03;17.27;;;6.90;53.50;;;;;;7390953;19;20143;-86
2022/03/26 05:01:38;;;;;;;33.72;18.90;;;6.90;53.50;;;;;;7383867;19;20139;-83
2022/03/26 05:04:07;;;;;;;34.65;19.48;;;6.90;53.90;;;;;;7389275;19;20146;-85
2022/03/26 05:06:39;;;;;;;34.85;19.98;;;6.90;53.60;;;;;;7385688;19;21016;-86
2022/03/26 05:09:09;;;;;;;30.90;17.77;;;6.80;53.50;;;;;;7382935;19;21728;-81
2022/03/26 05:11:38;;;;;;;31.77;19.35;;;6.80;53.70;;;;;;7384755;19;20162;-82
2022/03/26 05:14:08;;;;;;;33.60;20.02;;;6.80;53.80;;;;;;7389054;19;20131;-85
2022/03/26 05:16:37;;;;;;;35.67;20.00;;;6.80;54.10;;;;;;7383046;19;20569;-83
2022/03/26 05:19:09;;;;;;;32.60;18.17;;;6.70;54.00;;;;;;7382907;19;20140;-86
2022/03/26 05:21:41;;;;;;;29.83;17.70;;;6.70;53.90;;;;;;7386129;19;20136;-82
2022/03/26 05:24:13;;;;;;;30.95;19.05;;;6.70;54.00;;;;;;7386964;19;20150;-82
2022/03/26 05:26:42;;;;;;;35.83;18.55;;;6.60;54.00;;;;;;7390313;19;20973;-77
2022/03/26 05:29:12;;;;;;;36.30;19.85;;;6.70;54.50;;;;;;7387876;19;20818;-83
2022/03/26 05:31:42;;;;;;;38.58;18.98;;;6.70;54.20;;;;;;7384735;19;20692;-81
2022/03/26 05:34:11;;;;;;;38.88;20.90;;;6.70;54.10;;;;;;7374544;19;20207;-84
2022/03/26 05:36:46;;;;;;;40.72;20.58;;;6.70;54.30;;;;;;7374833;19;20195;-85
2022/03/26 05:39:18;;;;;;;32.47;19.63;;;6.60;54.30;;;;;;7377798;19;20142;-84
2022/03/26 05:41:50;;;;;;;36.50;19.65;;;6.70;54.10;;;;;;7371804;19;20150;-75
2022/03/26 05:44:20;;;;;;;38.70;19.25;;;6.80;54.10;;;;;;7389525;19;20127;-83
2022/03/26 05:46:51;;;;;;;41.90;20.00;;;6.80;54.10;;;;;;7412908;19;20153;-84
2022/03/26 05:49:21;;;;;;;35.40;20.35;;;6.70;54.00;;;;;;7410565;19;20653;-80
2022/03/26 05:51:53;;;;;;;36.53;17.92;;;6.80;54.20;;;;;;7394141;19;20136;-82
2022/03/26 05:54:23;;;;;;;34.00;19.08;;;6.90;54.10;;;;;;7394547;19;20169;-81
2022/03/26 05:56:54;;;;;;;34.50;19.00;;;6.90;53.80;;;;;;7397184;19;20167;-81
2022/03/26 05:59:26;;;;;;;39.97;19.98;;;6.90;53.80;;;;;;7388874;19;21427;-80
2022/03/26 06:01:56;;;;;;;42.10;20.35;;;6.90;54.00;;;;;;7396235;19;20156;-75
2022/03/26 06:04:27;;;;;;;36.15;20.10;;;6.80;53.80;;;;;;7404674;19;20136;-81
2022/03/26 06:06:59;;;;;;;33.58;19.30;;;6.90;54.40;;;;;;7410761;19;20116;-80
2022/03/26 06:09:28;;;;;;;34.33;20.33;;;6.90;54.50;;;;;;7408150;19;20179;-83
2022/03/26 06:11:59;;;;;;;36.83;20.90;;;7.00;54.20;;;;;;7411208;19;20139;-81
2022/03/26 06:14:30;;;;;;;37.15;18.17;;;7.10;53.40;;;;;;7414078;19;20136;-80
2022/03/26 06:17:00;;;;;;;31.83;18.98;;;7.20;53.20;;;;;;7425939;19;20156;-80
2022/03/26 06:19:32;;;;;;;34.92;19.55;;;7.20;54.40;;;;;;7427646;19;20168;-80
2022/03/26 06:22:04;;;;;;;35.20;20.25;;;7.20;53.70;;;;;;7393400;19;20139;-80
2022/03/26 06:24:33;;;;;;;34.40;20.77;;;7.30;53.40;;;;;;7390461;19;20127;-80
2022/03/26 06:27:03;;;;;;;38.28;22.40;;;7.30;53.40;;;;;;7385057;19;20136;-80
2022/03/26 06:29:36;;;;;;;34.60;19.77;;;7.40;53.60;;;;;;7382066;19;20573;-80
2022/03/26 06:32:06;;;;;;;37.67;20.27;;;7.50;53.50;;;;;;7378565;19;20600;-80
2022/03/26 06:34:38;;;;;;;30.25;18.17;;;7.60;53.40;;;;;;7375974;19;20710;-81
2022/03/26 06:37:12;;;;;;;35.70;19.70;;;7.60;53.50;;;;;;7376451;19;20147;-83
2022/03/26 06:39:42;;;;;;;34.88;19.90;;;7.60;53.70;;;;;;7377995;19;20132;-80
2022/03/26 06:42:11;;;;;;;35.25;19.52;;;7.70;53.80;;;;;;7376487;19;20175;-78
2022/03/26 06:44:42;;;;;;;38.60;20.48;;;7.70;53.70;;;;;;7370774;19;20830;-82
2022/03/26 06:47:12;;;;;;;35.08;20.48;;;7.80;53.40;;;;;;7375070;19;20139;-82
2022/03/26 06:49:41;;;;;;;38.45;19.95;;;7.90;52.90;;;;;;7372197;19;20144;-82
2022/03/26 06:52:13;;;;;;;33.17;20.75;;;8.00;52.80;;;;;;7383447;19;20594;-83
2022/03/26 06:54:43;;;;;;;37.92;19.98;;;8.20;52.20;;;;;;7384644;19;20156;-86
2022/03/26 06:57:13;;;;;;;40.72;21.80;;;8.50;52.10;;;;;;7374156;19;20656;-81
2022/03/26 06:59:42;;;;;;;35.88;21.15;;;8.70;51.30;;;;;;7382634;19;20147;-84
2022/03/26 07:02:12;;;;;;;37.88;21.58;;;8.90;50.50;;;;;;7370378;19;20182;-85
2022/03/26 07:04:44;;;;;;;33.63;19.90;;;9.10;50.30;;;;;;7373215;19;21638;-85
2022/03/26 07:07:17;;;;;;;42.80;21.77;;;9.40;49.90;;;;;;7365370;19;20421;-83
2022/03/26 07:09:47;;;;;;;37.90;20.67;;;9.60;49.10;;;;;;7375262;19;20647;-82
2022/03/26 07:12:18;;;;;;;29.57;18.90;;;9.80;47.80;;;;;;7385546;19;21268;-85
2022/03/26 07:14:47;;;;;;;37.10;21.00;;;10.10;46.50;;;;;;7387088;19;20742;-81
2022/03/26 07:17:18;;;;;;;30.20;19.03;;;10.30;45.60;;;;;;7382941;19;20467;-85
2022/03/26 07:19:47;;;;;;;32.53;20.93;;;10.50;45.30;;;;;;7385067;19;20940;-84
2022/03/26 07:22:19;;;;;;;32.43;20.47;;;10.80;45.00;;;;;;7386807;19;20416;-82
2022/03/26 07:24:49;;;;;;;34.00;20.73;;;11.00;43.90;;;;;;7385295;19;20428;-86
2022/03/26 07:27:18;;;;;;;39.13;21.40;;;11.30;42.90;;;;;;7385808;19;20766;-83
2022/03/26 07:29:51;;;;;;;33.47;20.50;;;11.60;43.30;;;;;;7376238;19;20400;-80
2022/03/26 07:32:22;;;;;;;34.33;20.30;;;11.80;42.40;;;;;;7377952;19;20770;-80
2022/03/26 07:34:52;;;;;;;30.47;18.87;;;11.90;41.80;;;;;;7366575;19;20488;-80
2022/03/26 07:37:24;;;;;;;32.50;20.77;;;12.10;41.60;;;;;;7377048;19;21044;-80
2022/03/26 07:39:54;;;;;;;30.90;19.13;;;12.30;40.80;;;;;;7380763;19;20392;-79
2022/03/26 07:42:25;;;;;;;33.53;20.80;;;12.50;40.40;;;;;;7381930;19;20396;-79
2022/03/26 07:44:55;;;;;;;39.60;19.77;;;12.70;39.90;;;;;;7375256;19;20412;-80
2022/03/26 07:47:24;;;;;;;32.57;20.80;;;12.90;39.70;;;;;;7379940;19;20932;-81
2022/03/26 07:49:54;;;;;;;33.53;19.27;;;13.10;39.20;;;;;;7374088;19;20391;-79
2022/03/26 07:52:26;;;;;;;34.00;21.07;;;13.30;38.90;;;;;;7377413;19;20418;-82
2022/03/26 07:54:56;;;;;;;33.60;19.80;;;13.40;38.70;;;;;;7377830;19;20432;-82
2022/03/26 07:57:26;;;;;;;36.33;21.50;;;13.40;37.90;;;;;;7374706;19;20420;-80
2022/03/26 07:59:56;;;;;;;32.30;20.33;;;13.50;37.80;;;;;;7378865;19;20404;-80
2022/03/26 08:02:25;;;;;;;33.27;21.10;;;13.50;37.60;;;;;;7377834;19;20503;-79
2022/03/26 08:04:55;;;;;;;32.27;20.73;;;13.40;37.30;;;;;;7379622;19;20415;-79
2022/03/26 08:07:28;;;;;;;32.43;21.23;;;13.30;37.30;;;;;;7380536;19;20428;-82
2022/03/26 08:09:57;;;;;;;33.23;21.63;;;13.20;37.60;;;;;;7377264;19;20948;-81
2022/03/26 08:12:27;;;;;;;31.40;20.30;;;13.20;37.70;;;;;;7363751;19;20443;-82
2022/03/26 08:14:56;;;;;;;33.87;21.90;;;13.10;37.70;;;;;;7361583;19;20408;-81
2022/03/26 08:17:26;;;;;;;39.43;22.80;;;13.10;38.10;;;;;;7358625;19;20400;-78
2022/03/26 08:19:55;;;;;;;34.57;20.73;;;12.90;38.50;;;;;;7346883;19;20432;-78
2022/03/26 08:22:28;;;;;;;33.97;20.87;;;12.70;39.00;;;;;;7356790;19;20420;-84
2022/03/26 08:24:57;;;;;;;31.43;19.20;;;12.50;39.20;;;;;;7353935;19;20420;-82
2022/03/26 08:27:27;;;;;;;40.60;22.73;;;12.50;39.40;;;;;;7348615;19;20415;-84
2022/03/26 08:29:57;;;;;;;37.30;21.63;;;12.70;39.60;;;;;;7357294;19;20404;-83
2022/03/26 08:32:26;;;;;;;38.57;23.40;;;13.30;39.10;;;;;;7364305;19;20408;-84
2022/03/26 08:34:55;;;;;;;35.93;22.07;;;13.90;38.10;;;;;;7367429;19;20413;-82
2022/03/26 08:37:27;;;;;;;33.00;22.10;;;14.50;37.10;;;;;;7362951;19;20443;-83
2022/03/26 08:39:57;;;;;;;39.10;24.67;;;15.00;36.10;;;;;;7364084;19;20396;-83
2022/03/26 08:42:27;;;;;;;36.27;24.50;;;15.40;35.50;;;;;;7381486;19;21066;-82
2022/03/26 08:44:57;;;;;;;36.50;22.87;;;16.10;34.40;;;;;;7364062;19;20433;-82
2022/03/26 08:47:27;;;;;;;31.50;21.97;;;16.50;33.40;;;;;;7365176;19;20416;-84
2022/03/26 08:49:57;;;;;;;31.17;22.50;;;16.90;33.40;;;;;;7374451;19;20427;-82
2022/03/26 08:52:29;;;;;;;35.60;23.63;;;17.20;32.20;;;;;;7377208;19;20412;-82
2022/03/26 08:54:58;;;;;;;35.10;24.67;;;17.50;31.80;;;;;;7360967;19;22120;-83
2022/03/26 08:57:28;;;;;;;31.70;22.53;;;18.00;31.40;;;;;;7351357;19;20428;-80
2022/03/26 08:59:57;;;;;;;34.63;24.10;;;18.80;30.80;;;;;;7352939;19;21456;-81
2022/03/26 09:02:27;;;;;;;34.10;24.10;;;19.60;28.80;;;;;;7353667;19;20404;-80
2022/03/26 09:04:59;;;;;;;34.07;23.13;;;20.50;28.40;;;;;;7353765;19;20432;-80
2022/03/26 09:07:34;;;;;;;33.17;23.87;;;21.30;27.40;;;;;;7375244;19;20412;-79
2022/03/26 09:10:03;;;;;;;29.97;23.70;;;21.80;26.50;;;;;;7369234;19;20455;-80
2022/03/26 09:12:33;;;;;;;39.70;24.53;;;21.10;26.50;;;;;;7375530;19;20429;-80
2022/03/26 09:15:02;;;;;;;22.20;17.43;;;20.40;26.90;;;;;;7367880;19;20400;-78
2022/03/26 09:17:32;;;;;;;32.90;23.47;;;20.30;30.70;;;;;;7381631;19;20406;-80
2022/03/26 09:20:02;;;;;;;35.43;24.23;;;20.50;27.30;;;;;;7420887;19;20402;-78
2022/03/26 09:22:34;;;;;;;34.60;23.20;;;19.50;27.90;;;;;;7417229;19;20385;-79
2022/03/26 09:25:04;;;;;;;33.93;23.03;;;19.20;28.50;;;;;;7420081;19;20408;-79
2022/03/26 09:27:34;;;;;;;36.27;23.17;;;18.90;28.70;;;;;;7420399;19;20401;-77
2022/03/26 09:30:08;;;;;;;39.30;24.10;;;18.50;29.20;;;;;;7410392;19;20417;-77
2022/03/26 09:32:37;;;;;;;32.13;21.57;;;18.40;29.80;;;;;;7397116;19;20404;-81
2022/03/26 09:35:08;;;;;;;36.37;24.57;;;18.10;29.50;;;;;;7396479;19;20911;-78
2022/03/26 09:37:43;;;;;;;35.57;23.33;;;18.50;29.70;;;;;;7403079;19;20416;-77
2022/03/26 09:40:14;;;;;;;33.33;23.13;;;18.50;29.70;;;;;;7408686;19;20400;-78
2022/03/26 09:42:43;;;;;;;35.87;22.57;;;18.60;29.40;;;;;;7411890;19;20463;-78
2022/03/26 09:45:13;;;;;;;38.10;23.20;;;18.90;28.90;;;;;;7409683;19;20982;-79
2022/03/26 09:47:42;;;;;;;38.13;23.87;;;19.30;29.10;;;;;;7405400;19;20838;-80
2022/03/26 09:50:13;;;;;;;38.30;21.70;;;19.00;29.40;;;;;;7390216;19;20404;-78
2022/03/26 09:52:48;;;;;;;36.67;22.57;;;18.60;29.90;;;;;;7390280;19;20416;-80
2022/03/26 09:55:21;;;;;;;38.50;23.90;;;18.80;29.50;;;;;;7389105;19;20420;-79
2022/03/26 09:57:52;;;;;;;39.70;24.00;;;18.90;29.60;;;;;;7390056;19;21022;-79
2022/03/26 10:00:21;;;;;;;40.27;23.43;;;18.50;29.60;;;;;;7382039;19;20447;-79
2022/03/26 10:02:51;;;;;;;37.93;23.20;;;19.00;29.70;;;;;;7383369;19;20401;-80
2022/03/26 10:05:21;;;;;;;37.50;22.90;;;19.50;29.10;;;;;;7380738;19;20762;-80
2022/03/26 10:07:53;;;;;;;36.90;22.50;;;19.60;29.00;;;;;;7380516;19;20396;-79
2022/03/26 10:10:27;;;;;;;42.53;25.50;;;19.90;28.70;;;;;;7381682;19;20479;-79
2022/03/26 10:12:56;;;;;;;38.60;24.27;;;20.30;28.40;;;;;;7376554;19;20500;-79
2022/03/26 10:15:26;;;;;;;38.50;25.20;;;20.50;28.30;;;;;;7378841;19;20400;-79
2022/03/26 10:17:55;;;;;;;35.60;22.57;;;20.50;28.20;;;;;;7378610;19;20836;-80
2022/03/26 10:20:25;;;;;;;36.17;23.23;;;21.00;27.90;;;;;;7379146;19;20407;-79
2022/03/26 10:23:00;;;;;;;39.70;22.70;;;20.80;28.00;;;;;;7377231;19;20412;-79
2022/03/26 10:25:31;;;;;;;34.47;21.80;;;19.50;28.20;;;;;;7379037;19;20919;-79
2022/03/26 10:28:03;;;;;;;40.43;24.70;;;19.90;28.50;;;;;;7381525;19;20420;-80
2022/03/26 10:33:21;;;;;;;35.20;21.47;;;20.00;28.40;;;;;;7377790;19;20368;-79
2022/03/26 10:35:58;;;;;;;36.73;23.37;;;20.60;28.30;;;;;;7378546;19;20375;-79
2022/03/26 10:38:35;;;;;;;39.33;25.23;;;20.40;28.20;;;;;;7378902;19;20360;-79
2022/03/26 10:41:07;;;;;;;36.80;24.07;;;20.80;28.90;;;;;;7378620;19;21280;-80
2022/03/26 10:43:37;;;;;;;33.77;22.30;;;21.30;28.10;;;;;;7376767;19;20408;-80
2022/03/26 10:46:07;;;;;;;38.80;22.60;;;21.90;27.60;;;;;;7375852;19;20428;-80
2022/03/26 10:48:38;;;;;;;41.63;24.37;;;21.70;26.60;;;;;;7377119;19;20384;-79
2022/03/26 10:51:09;;;;;;;38.20;24.00;;;21.10;27.00;;;;;;7379894;19;20405;-81
2022/03/26 10:53:43;;;;;;;32.27;21.97;;;20.30;27.40;;;;;;7373053;19;21016;-79
2022/03/26 10:56:14;;;;;;;37.70;24.33;;;20.60;27.80;;;;;;7377975;19;20895;-79
2022/03/26 10:58:46;;;;;;;34.70;21.43;;;21.10;27.20;;;;;;7377606;19;20455;-81
2022/03/26 11:01:16;;;;;;;35.73;22.03;;;21.80;26.20;;;;;;7378381;19;20384;-80
2022/03/26 11:03:48;;;;;;;34.47;22.30;;;22.30;24.90;;;;;;7377634;19;20416;-80
2022/03/26 11:06:20;;;;;;;39.00;22.60;;;22.00;25.10;;;;;;7373920;19;20411;-80
2022/03/26 11:08:59;;;;;;;33.23;21.70;;;22.20;25.40;;;;;;7377243;19;20416;-79
2022/03/26 11:11:30;;;;;;;38.70;21.83;;;21.90;24.70;;;;;;7375695;19;20424;-80
2022/03/26 11:14:03;;;;;;;34.97;21.40;;;22.10;24.90;;;;;;7375765;19;20549;-79
2022/03/26 11:16:52;;;;;;;34.00;22.47;;;22.80;24.70;;;;;;7374195;19;21217;-81
2022/03/26 11:19:36;;;;;;;33.90;22.17;;;22.70;23.60;;;;;;7379323;19;20408;-80
2022/03/26 11:22:29;;;;;;;33.67;22.03;;;22.40;24.00;;;;;;7374265;19;20428;-80
2022/03/26 11:25:19;;;;;;;28.33;19.90;;;22.80;23.80;;;;;;7378363;19;20397;-79
2022/03/26 11:28:02;;;;;;;30.17;20.27;;;23.10;24.50;;;;;;7375355;19;20423;-79
2022/03/26 11:30:40;;;;;;;40.27;23.07;;;23.20;24.40;;;;;;7375907;19;20759;-79
2022/03/26 11:33:14;;;;;;;51.23;26.70;;;23.30;24.50;;;;;;7374899;19;20475;-81
2022/03/26 11:35:57;;;;;;;34.63;20.33;;;23.30;25.90;;;;;;7376635;19;20400;-79
2022/03/26 11:38:28;;;;;;;28.67;19.20;;;23.90;24.80;;;;;;7373690;19;21045;-80
2022/03/26 11:41:03;;;;;;;31.57;21.47;;;23.90;23.70;;;;;;7379814;19;20924;-80
2022/03/26 11:43:56;;;;;;;44.27;26.40;;;23.50;23.30;;;;;;7375219;19;20411;-80
2022/03/26 11:52:18;;;;;;;28.90;19.30;;;23.50;22.90;;;;;;7375912;19;20449;-81
2022/03/26 11:54:48;;;;;;;26.80;18.70;;;23.40;23.40;;;;;;7375018;19;20419;-80
2022/03/26 11:57:24;;;;;;;22.43;16.47;;;23.40;22.00;;;;;;7372903;19;20424;-81
2022/03/26 11:59:54;;;;;;;25.17;17.90;;;23.50;21.70;;;;;;7374199;19;20424;-80
2022/03/26 12:02:26;;;;;;;28.23;18.03;;;23.70;22.20;;;;;;7377387;19;20425;-81
2022/03/26 12:06:35;;;;;;;25.77;17.77;;;23.60;21.80;;;;;;7381185;19;20423;-80
2022/03/26 12:07:50;;;;;;;28.40;18.83;;;23.60;21.90;;;;;;7381191;19;20400;-80
2022/03/26 12:10:21;;;;;;;26.20;17.60;;;23.90;22.10;;;;;;7381216;19;20369;-81
2022/03/26 12:13:05;;;;;;;27.20;18.43;;;23.70;21.90;;;;;;7381089;19;20416;-81
2022/03/26 12:15:36;;;;;;;26.17;17.90;;;23.90;21.90;;;;;;7382428;19;20431;-81
2022/03/26 12:18:14;;;;;;;26.77;17.60;;;24.00;22.30;;;;;;7382736;19;20416;-79
2022/03/26 12:20:45;;;;;;;25.90;18.20;;;23.80;21.80;;;;;;7408937;19;20432;-78
2022/03/26 12:23:17;;;;;;;30.10;16.57;;;23.90;21.50;;;;;;7411752;19;20437;-79
2022/03/26 12:25:50;;;;;;;22.77;16.00;;;23.70;21.70;;;;;;7407881;19;21327;-78
2022/03/26 12:28:34;;;;;;;23.57;15.87;;;23.80;22.70;;;;;;7411971;19;21066;-77
2022/03/26 12:31:06;;;;;;;25.97;17.40;;;24.10;21.20;;;;;;7409318;19;21065;-77
2022/03/26 12:33:44;;;;;;;21.80;15.57;;;24.10;20.80;;;;;;7410378;19;21069;-78
2022/03/26 12:36:14;;;;;;;19.83;14.53;;;24.00;20.30;;;;;;7396992;19;20396;-80
2022/03/26 12:38:49;;;;;;;18.03;14.63;;;24.10;20.60;;;;;;7402767;19;20411;-81
2022/03/26 12:41:18;;;;;;;25.50;15.33;;;24.20;20.00;;;;;;7404708;19;21598;-80
2022/03/26 12:44:01;;;;;;;24.13;15.63;;;23.80;20.40;;;;;;7408085;19;20416;-79
2022/03/26 12:46:34;;;;;;;26.30;17.00;;;24.20;20.50;;;;;;7410531;19;20420;-81
2022/03/26 12:49:09;;;;;;;22.60;14.70;;;24.50;20.30;;;;;;7410664;19;20484;-80
2022/03/26 12:51:39;;;;;;;18.60;13.50;;;24.50;19.10;;;;;;7399407;19;20429;-81
2022/03/26 12:54:08;;;;;;;20.73;14.70;;;24.50;20.60;;;;;;7388528;19;20409;-81
2022/03/26 12:56:38;;;;;;;20.63;13.53;;;24.60;20.60;;;;;;7385885;19;20883;-80
2022/03/26 12:59:07;;;;;;;18.97;12.90;;;24.60;20.00;;;;;;7384354;19;20383;-80
2022/03/26 13:01:37;;;;;;;22.07;14.43;;;24.10;18.80;;;;;;7385278;19;20412;-80
2022/03/26 13:04:07;;;;;;;20.97;14.23;;;23.80;20.50;;;;;;7384272;19;20413;-79